Etusivu
METAR-TAF:

METAR-TAF

Lentoasemat :

Kajaanin lentoasema

Kajaani, Suomi

Leveyspiiri: 64-17N, Pituuspiiri: 027-41E, korkeus merenpinnasta: 143 m

Tämänhetkinen sää

Tämä raportti tehtiin 34 minuuttia sitten, kello 17.50 UTC
Tuuli 5 kn etelästä/lounaasta
Lämpötila -5°C
Kosteus 86%
Ilmanpaine 1033 hPa
Näkyvyys 10 km tai enemmän
ei pilviä alle 1500 m:ssä eikä cumulonimbus-pilviä

METAR: EFKI 191750Z AUTO 20005KT CAVOK M05/M07 Q1033

Aika: 20:24 (18:24 UTC)

Sääennuste

Tämä raportti tehtiin 46 minuuttia sitten, kello 17.38 UTC
Ennuste voimassa 19. päivästä klo 18 UTC - 19. päivään klo 22 UTC
Tuuli 4 kn lännestä/lounaasta
Näkyvyys 10 km tai enemmän
ei pilviä alle 1500 m:ssä eikä cumulonimbus-pilviä
Tulossa
19. päivästä klo 19 UTC - 19. päivään klo 21 UTC
Hajonneita pilviä 600 ft:n korkeudessa
Todennäköisyys 30%
19. päivästä klo 19 UTC - 19. päivään klo 22 UTC
Näkyvyys: 3000 m
utua

TAF: EFKI 191738Z 1918/1922 24004KT CAVOK BECMG 1919/1921 BKN006 PROB30 1919/1922 3000 BR

Säähavainnot ja -ennusteet yli 4000 lentoasemalta (METAR- ja TAF-raportit).

Käytössä olevat sääasemat on merkitty karttaan keltaisilla ja punaisilla pisteillä.

Aseta hiiri pisteen päälle nähdäksesi sääaseman nimen.

Klikkaa sitten nähdäksesi säähavainnot ja -ennusteet.

Kartan vaihtaminen: klikkaa mustalla rastilla varustettuja vihreitä pisteitä, niin voit zoomata sisään; viivalla varustettua vihreää pistettä, niin voit zoomata ulos tai vihreitä nuolia, niin pääset viereisille kartoille.


METAR-TAF: